sensor_id;sensor_type;location;lat;lon;timestamp;pressure;altitude;pressure_sealevel;temperature;humidity
72612;BME280;60655;52.182;4.474;2023-08-17T00:01:52;102099.19;;;18.21;85.97
72612;BME280;60655;52.182;4.474;2023-08-17T00:03:53;102097.06;;;18.23;85.71
72612;BME280;60655;52.182;4.474;2023-08-17T00:05:54;102097.66;;;18.25;85.24
72612;BME280;60655;52.182;4.474;2023-08-17T00:07:54;102102.22;;;18.25;85.69
72612;BME280;60655;52.182;4.474;2023-08-17T00:09:55;102091.72;;;18.11;84.96
72612;BME280;60655;52.182;4.474;2023-08-17T00:11:56;102103.19;;;18.18;85.07
72612;BME280;60655;52.182;4.474;2023-08-17T00:13:57;102103.38;;;18.29;84.22
72612;BME280;60655;52.182;4.474;2023-08-17T00:15:58;102094.53;;;18.16;85.18
72612;BME280;60655;52.182;4.474;2023-08-17T00:17:59;102101.88;;;18.21;84.44
72612;BME280;60655;52.182;4.474;2023-08-17T00:20:00;102108.41;;;18.25;84.17
72612;BME280;60655;52.182;4.474;2023-08-17T00:22:01;102096.41;;;18.04;84.13
72612;BME280;60655;52.182;4.474;2023-08-17T00:24:02;102106.81;;;18.12;84.06
72612;BME280;60655;52.182;4.474;2023-08-17T00:26:03;102107.84;;;18.11;83.63
72612;BME280;60655;52.182;4.474;2023-08-17T00:28:04;102113.81;;;18.13;83.40
72612;BME280;60655;52.182;4.474;2023-08-17T00:30:06;102109.97;;;18.09;83.47
72612;BME280;60655;52.182;4.474;2023-08-17T00:32:07;102105.88;;;18.07;83.33
72612;BME280;60655;52.182;4.474;2023-08-17T00:34:08;102096.75;;;18.08;83.42
72612;BME280;60655;52.182;4.474;2023-08-17T00:36:09;102102.59;;;18.05;83.23
72612;BME280;60655;52.182;4.474;2023-08-17T00:38:10;102097.34;;;18.10;83.02
72612;BME280;60655;52.182;4.474;2023-08-17T00:40:11;102102.94;;;18.08;83.01
72612;BME280;60655;52.182;4.474;2023-08-17T00:42:14;102093.81;;;18.09;82.87
72612;BME280;60655;52.182;4.474;2023-08-17T00:44:15;102088.44;;;18.09;82.97
72612;BME280;60655;52.182;4.474;2023-08-17T00:46:16;102083.66;;;18.11;82.97
72612;BME280;60655;52.182;4.474;2023-08-17T00:48:18;102077.00;;;18.02;82.93
72612;BME280;60655;52.182;4.474;2023-08-17T00:50:19;102086.56;;;17.98;83.31
72612;BME280;60655;52.182;4.474;2023-08-17T00:52:20;102086.00;;;17.96;83.16
72612;BME280;60655;52.182;4.474;2023-08-17T00:54:24;102080.88;;;17.83;83.60
72612;BME280;60655;52.182;4.474;2023-08-17T00:56:26;102085.66;;;17.81;84.00
72612;BME280;60655;52.182;4.474;2023-08-17T00:58:28;102093.84;;;17.86;83.79
72612;BME280;60655;52.182;4.474;2023-08-17T01:00:31;102088.34;;;17.81;84.21
72612;BME280;60655;52.182;4.474;2023-08-17T01:02:32;102086.34;;;17.76;84.53
72612;BME280;60655;52.182;4.474;2023-08-17T01:04:34;102092.91;;;17.80;84.27
72612;BME280;60655;52.182;4.474;2023-08-17T01:06:35;102090.44;;;17.79;84.13
72612;BME280;60655;52.182;4.474;2023-08-17T01:08:37;102094.06;;;17.84;84.33
72612;BME280;60655;52.182;4.474;2023-08-17T01:10:51;102088.81;;;17.78;84.46
72612;BME280;60655;52.182;4.474;2023-08-17T01:13:24;102088.56;;;17.79;84.27
72612;BME280;60655;52.182;4.474;2023-08-17T01:15:24;102088.94;;;17.83;84.02
72612;BME280;60655;52.182;4.474;2023-08-17T01:17:43;102092.31;;;17.78;84.25
72612;BME280;60655;52.182;4.474;2023-08-17T01:19:45;102095.72;;;17.85;84.08
72612;BME280;60655;52.182;4.474;2023-08-17T01:21:50;102091.03;;;17.81;84.07
72612;BME280;60655;52.182;4.474;2023-08-17T01:23:51;102087.66;;;17.85;83.92
72612;BME280;60655;52.182;4.474;2023-08-17T01:25:52;102100.84;;;17.87;83.73
72612;BME280;60655;52.182;4.474;2023-08-17T01:27:54;102089.50;;;17.73;84.23
72612;BME280;60655;52.182;4.474;2023-08-17T01:29:55;102091.50;;;17.78;83.87
72612;BME280;60655;52.182;4.474;2023-08-17T01:32:25;102087.28;;;17.82;83.83
72612;BME280;60655;52.182;4.474;2023-08-17T01:34:29;102084.94;;;17.74;83.78
72612;BME280;60655;52.182;4.474;2023-08-17T01:36:37;102078.47;;;17.63;84.04
72612;BME280;60655;52.182;4.474;2023-08-17T01:38:40;102086.44;;;17.58;85.25
72612;BME280;60655;52.182;4.474;2023-08-17T01:40:42;102089.72;;;17.72;84.48
72612;BME280;60655;52.182;4.474;2023-08-17T01:42:44;102090.44;;;17.79;84.36
72612;BME280;60655;52.182;4.474;2023-08-17T01:44:45;102076.66;;;17.75;84.29
72612;BME280;60655;52.182;4.474;2023-08-17T01:46:46;102087.97;;;17.66;84.46
72612;BME280;60655;52.182;4.474;2023-08-17T01:48:47;102088.66;;;17.61;85.11
72612;BME280;60655;52.182;4.474;2023-08-17T01:50:48;102089.34;;;17.57;85.24
72612;BME280;60655;52.182;4.474;2023-08-17T01:52:49;102079.28;;;17.64;84.88
72612;BME280;60655;52.182;4.474;2023-08-17T01:54:53;102078.56;;;17.45;85.81
72612;BME280;60655;52.182;4.474;2023-08-17T01:56:54;102082.94;;;17.58;85.16
72612;BME280;60655;52.182;4.474;2023-08-17T01:58:55;102078.13;;;17.48;85.75
72612;BME280;60655;52.182;4.474;2023-08-17T02:00:56;102042.00;;;17.32;85.64
72612;BME280;60655;52.182;4.474;2023-08-17T02:02:57;102071.69;;;17.49;85.76
72612;BME280;60655;52.182;4.474;2023-08-17T02:04:58;102074.38;;;17.49;85.86
72612;BME280;60655;52.182;4.474;2023-08-17T02:06:59;102074.97;;;17.51;86.05
72612;BME280;60655;52.182;4.474;2023-08-17T02:09:00;102075.66;;;17.46;86.54
72612;BME280;60655;52.182;4.474;2023-08-17T02:11:01;102072.13;;;17.34;86.89
72612;BME280;60655;52.182;4.474;2023-08-17T02:13:02;102068.75;;;17.39;86.82
72612;BME280;60655;52.182;4.474;2023-08-17T02:15:03;102072.50;;;17.49;86.39
72612;BME280;60655;52.182;4.474;2023-08-17T02:17:04;102050.53;;;17.41;86.53
72612;BME280;60655;52.182;4.474;2023-08-17T02:19:06;102068.06;;;17.43;87.11
72612;BME280;60655;52.182;4.474;2023-08-17T02:21:07;102065.13;;;17.45;87.01
72612;BME280;60655;52.182;4.474;2023-08-17T02:23:08;102061.88;;;17.43;86.79
72612;BME280;60655;52.182;4.474;2023-08-17T02:25:09;102064.88;;;17.35;87.01
72612;BME280;60655;52.182;4.474;2023-08-17T02:27:10;102075.53;;;17.30;87.63
72612;BME280;60655;52.182;4.474;2023-08-17T02:29:11;102066.97;;;17.33;87.42
72612;BME280;60655;52.182;4.474;2023-08-17T02:31:12;102075.03;;;17.33;87.70
72612;BME280;60655;52.182;4.474;2023-08-17T02:33:13;102076.13;;;17.32;88.24
72612;BME280;60655;52.182;4.474;2023-08-17T02:35:14;102085.09;;;17.26;87.90
72612;BME280;60655;52.182;4.474;2023-08-17T02:37:15;102070.84;;;17.25;87.85
72612;BME280;60655;52.182;4.474;2023-08-17T02:39:16;102077.63;;;17.28;88.13
72612;BME280;60655;52.182;4.474;2023-08-17T02:41:16;102074.69;;;17.29;88.10
72612;BME280;60655;52.182;4.474;2023-08-17T02:43:17;102070.47;;;17.21;88.14
72612;BME280;60655;52.182;4.474;2023-08-17T02:45:18;102073.75;;;17.24;88.27
72612;BME280;60655;52.182;4.474;2023-08-17T02:47:19;102079.13;;;17.24;88.39
72612;BME280;60655;52.182;4.474;2023-08-17T02:49:20;102077.84;;;17.26;87.63
72612;BME280;60655;52.182;4.474;2023-08-17T02:51:21;102076.66;;;17.22;88.29
72612;BME280;60655;52.182;4.474;2023-08-17T02:53:22;102075.47;;;17.18;88.59
72612;BME280;60655;52.182;4.474;2023-08-17T02:55:23;102074.75;;;17.11;88.85
72612;BME280;60655;52.182;4.474;2023-08-17T02:57:24;102072.56;;;17.19;88.35
72612;BME280;60655;52.182;4.474;2023-08-17T02:59:25;102062.84;;;17.07;88.10
72612;BME280;60655;52.182;4.474;2023-08-17T03:01:26;102070.94;;;17.18;88.16
72612;BME280;60655;52.182;4.474;2023-08-17T03:03:27;102062.66;;;17.20;89.01
72612;BME280;60655;52.182;4.474;2023-08-17T03:05:28;102067.06;;;17.14;88.28
72612;BME280;60655;52.182;4.474;2023-08-17T03:07:29;102068.78;;;17.09;88.68
72612;BME280;60655;52.182;4.474;2023-08-17T03:09:30;102068.09;;;17.02;88.97
72612;BME280;60655;52.182;4.474;2023-08-17T03:11:31;102063.66;;;17.07;88.97
72612;BME280;60655;52.182;4.474;2023-08-17T03:13:32;102065.75;;;17.05;89.17
72612;BME280;60655;52.182;4.474;2023-08-17T03:15:33;102069.13;;;17.01;89.49
72612;BME280;60655;52.182;4.474;2023-08-17T03:17:34;102075.56;;;17.11;89.39
72612;BME280;60655;52.182;4.474;2023-08-17T03:19:34;102073.69;;;17.00;89.65
72612;BME280;60655;52.182;4.474;2023-08-17T03:21:35;102076.16;;;17.02;89.47
72612;BME280;60655;52.182;4.474;2023-08-17T03:23:36;102061.75;;;16.96;89.83
72612;BME280;60655;52.182;4.474;2023-08-17T03:25:37;102075.41;;;16.95;90.01
72612;BME280;60655;52.182;4.474;2023-08-17T03:27:38;102054.13;;;16.81;90.51
72612;BME280;60655;52.182;4.474;2023-08-17T03:29:39;102070.03;;;16.95;90.23
72612;BME280;60655;52.182;4.474;2023-08-17T03:31:40;102068.19;;;16.95;90.21
72612;BME280;60655;52.182;4.474;2023-08-17T03:33:41;102066.91;;;16.98;90.06
72612;BME280;60655;52.182;4.474;2023-08-17T03:35:42;102067.59;;;16.93;90.08
72612;BME280;60655;52.182;4.474;2023-08-17T03:37:43;102067.38;;;16.95;90.15
72612;BME280;60655;52.182;4.474;2023-08-17T03:39:44;102067.59;;;16.93;90.44
72612;BME280;60655;52.182;4.474;2023-08-17T03:41:45;102064.31;;;16.91;90.35
72612;BME280;60655;52.182;4.474;2023-08-17T03:43:46;102061.75;;;16.96;90.09
72612;BME280;60655;52.182;4.474;2023-08-17T03:45:47;102065.81;;;16.87;90.08
72612;BME280;60655;52.182;4.474;2023-08-17T03:47:47;102060.06;;;16.83;90.48
72612;BME280;60655;52.182;4.474;2023-08-17T03:49:48;102062.31;;;16.86;90.77
72612;BME280;60655;52.182;4.474;2023-08-17T03:51:49;102060.06;;;16.83;90.61
72612;BME280;60655;52.182;4.474;2023-08-17T03:53:50;102070.50;;;16.92;90.50
72612;BME280;60655;52.182;4.474;2023-08-17T03:55:51;102066.16;;;16.91;89.79
72612;BME280;60655;52.182;4.474;2023-08-17T03:57:52;102053.56;;;16.91;90.32
72612;BME280;60655;52.182;4.474;2023-08-17T03:59:53;102055.44;;;16.91;90.12
72612;BME280;60655;52.182;4.474;2023-08-17T04:01:54;102061.78;;;16.78;90.87
72612;BME280;60655;52.182;4.474;2023-08-17T04:03:55;102061.47;;;16.86;90.62
72612;BME280;60655;52.182;4.474;2023-08-17T04:05:56;102065.59;;;16.88;89.93
72612;BME280;60655;52.182;4.474;2023-08-17T04:07:58;102062.97;;;16.82;90.23
72612;BME280;60655;52.182;4.474;2023-08-17T04:10:03;102059.09;;;16.78;90.41
72612;BME280;60655;52.182;4.474;2023-08-17T04:12:06;102061.13;;;16.82;90.81
72612;BME280;60655;52.182;4.474;2023-08-17T04:14:07;102070.66;;;16.78;90.17
72612;BME280;60655;52.182;4.474;2023-08-17T04:16:09;102061.75;;;16.66;91.34
72612;BME280;60655;52.182;4.474;2023-08-17T04:18:10;102053.97;;;16.58;90.87
72612;BME280;60655;52.182;4.474;2023-08-17T04:20:11;102066.69;;;16.69;91.06
72612;BME280;60655;52.182;4.474;2023-08-17T04:22:12;102073.69;;;16.70;90.94
72612;BME280;60655;52.182;4.474;2023-08-17T04:24:13;102067.88;;;16.73;90.24
72612;BME280;60655;52.182;4.474;2023-08-17T04:26:14;102060.94;;;16.66;90.97
72612;BME280;60655;52.182;4.474;2023-08-17T04:28:15;102065.50;;;16.65;90.92
72612;BME280;60655;52.182;4.474;2023-08-17T04:30:16;102071.22;;;16.69;90.63
72612;BME280;60655;52.182;4.474;2023-08-17T04:32:17;102065.09;;;16.62;91.26
72612;BME280;60655;52.182;4.474;2023-08-17T04:34:18;102068.81;;;16.61;91.03
72612;BME280;60655;52.182;4.474;2023-08-17T04:36:19;102065.03;;;16.68;91.03
72612;BME280;60655;52.182;4.474;2023-08-17T04:38:20;102061.31;;;16.69;90.86
72612;BME280;60655;52.182;4.474;2023-08-17T04:40:21;102070.19;;;16.70;90.85
72612;BME280;60655;52.182;4.474;2023-08-17T04:42:22;102070.84;;;16.65;91.24
72612;BME280;60655;52.182;4.474;2023-08-17T04:44:23;102067.34;;;16.65;91.08
72612;BME280;60655;52.182;4.474;2023-08-17T04:46:23;102064.03;;;16.63;91.17
72612;BME280;60655;52.182;4.474;2023-08-17T04:48:24;102073.00;;;16.57;91.29
72612;BME280;60655;52.182;4.474;2023-08-17T04:50:25;102070.03;;;16.65;91.09
72612;BME280;60655;52.182;4.474;2023-08-17T04:52:26;102062.19;;;16.63;90.94
72612;BME280;60655;52.182;4.474;2023-08-17T04:54:27;102060.53;;;16.62;91.02
72612;BME280;60655;52.182;4.474;2023-08-17T04:56:28;102057.22;;;16.67;90.94
72612;BME280;60655;52.182;4.474;2023-08-17T04:58:29;102056.00;;;16.63;91.28
72612;BME280;60655;52.182;4.474;2023-08-17T05:00:30;102056.44;;;16.60;91.63
72612;BME280;60655;52.182;4.474;2023-08-17T05:02:31;102061.00;;;16.59;91.38
72612;BME280;60655;52.182;4.474;2023-08-17T05:04:32;102066.13;;;16.61;91.42
72612;BME280;60655;52.182;4.474;2023-08-17T05:06:33;102063.06;;;16.57;91.27
72612;BME280;60655;52.182;4.474;2023-08-17T05:08:34;102060.53;;;16.62;91.81
72612;BME280;60655;52.182;4.474;2023-08-17T05:10:35;102059.44;;;16.70;91.22
72612;BME280;60655;52.182;4.474;2023-08-17T05:12:36;102055.94;;;16.69;90.68
72612;BME280;60655;52.182;4.474;2023-08-17T05:14:37;102046.97;;;16.57;91.35
72612;BME280;60655;52.182;4.474;2023-08-17T05:16:38;102051.03;;;16.66;91.63
72612;BME280;60655;52.182;4.474;2023-08-17T05:18:39;102040.22;;;16.73;91.39
72612;BME280;60655;52.182;4.474;2023-08-17T05:20:40;102048.16;;;16.79;90.67
72612;BME280;60655;52.182;4.474;2023-08-17T05:22:40;102043.97;;;16.83;90.78
72612;BME280;60655;52.182;4.474;2023-08-17T05:24:41;102052.47;;;16.80;90.93
72612;BME280;60655;52.182;4.474;2023-08-17T05:26:43;102041.19;;;16.90;90.66
72612;BME280;60655;52.182;4.474;2023-08-17T05:28:44;102042.09;;;16.84;90.66
72612;BME280;60655;52.182;4.474;2023-08-17T05:30:46;102048.88;;;16.86;90.72
72612;BME280;60655;52.182;4.474;2023-08-17T05:32:47;102049.19;;;16.78;90.97
72612;BME280;60655;52.182;4.474;2023-08-17T05:34:48;102049.34;;;16.83;90.85
72612;BME280;60655;52.182;4.474;2023-08-17T05:36:49;102054.47;;;16.85;90.83
72612;BME280;60655;52.182;4.474;2023-08-17T05:38:50;102053.66;;;16.84;90.81
72612;BME280;60655;52.182;4.474;2023-08-17T05:40:58;102048.06;;;16.86;90.20
72612;BME280;60655;52.182;4.474;2023-08-17T05:42:59;102048.75;;;16.81;90.36
72612;BME280;60655;52.182;4.474;2023-08-17T05:45:00;102050.13;;;16.72;91.32
72612;BME280;60655;52.182;4.474;2023-08-17T05:47:01;102047.25;;;16.85;90.67
72612;BME280;60655;52.182;4.474;2023-08-17T05:49:02;102057.38;;;16.83;90.94
72612;BME280;60655;52.182;4.474;2023-08-17T05:51:03;102052.25;;;16.82;91.17
72612;BME280;60655;52.182;4.474;2023-08-17T05:53:04;102053.88;;;16.83;91.42
72612;BME280;60655;52.182;4.474;2023-08-17T05:55:05;102050.47;;;16.76;91.62
72612;BME280;60655;52.182;4.474;2023-08-17T05:57:07;102059.16;;;16.90;90.69
72612;BME280;60655;52.182;4.474;2023-08-17T05:59:08;102060.22;;;16.88;91.65
72612;BME280;60655;52.182;4.474;2023-08-17T06:01:10;102060.84;;;17.02;90.90
72612;BME280;60655;52.182;4.474;2023-08-17T06:03:11;102067.75;;;17.10;90.74
72612;BME280;60655;52.182;4.474;2023-08-17T06:05:12;102064.16;;;17.16;90.23
72612;BME280;60655;52.182;4.474;2023-08-17T06:07:13;102062.88;;;17.18;90.18
72612;BME280;60655;52.182;4.474;2023-08-17T06:09:14;102069.75;;;17.14;90.21
72612;BME280;60655;52.182;4.474;2023-08-17T06:11:15;102075.66;;;17.05;90.56
72612;BME280;60655;52.182;4.474;2023-08-17T06:13:16;102072.06;;;17.11;91.08
72612;BME280;60655;52.182;4.474;2023-08-17T06:15:17;102073.38;;;17.20;90.82
72612;BME280;60655;52.182;4.474;2023-08-17T06:17:18;102077.63;;;17.28;90.61
72612;BME280;60655;52.182;4.474;2023-08-17T06:19:19;102074.13;;;17.27;90.17
72612;BME280;60655;52.182;4.474;2023-08-17T06:21:19;102083.34;;;17.31;90.21
72612;BME280;60655;52.182;4.474;2023-08-17T06:23:20;102074.94;;;17.28;90.48
72612;BME280;60655;52.182;4.474;2023-08-17T06:25:21;102079.03;;;17.30;90.32
72612;BME280;60655;52.182;4.474;2023-08-17T06:27:22;102077.50;;;17.34;89.83
72612;BME280;60655;52.182;4.474;2023-08-17T06:29:23;102075.63;;;17.35;90.22
72612;BME280;60655;52.182;4.474;2023-08-17T06:31:24;102076.81;;;17.39;89.97
72612;BME280;60655;52.182;4.474;2023-08-17T06:33:28;102075.53;;;17.41;89.58
72612;BME280;60655;52.182;4.474;2023-08-17T06:35:29;102079.63;;;17.44;89.87
72612;BME280;60655;52.182;4.474;2023-08-17T06:37:30;102079.28;;;17.52;89.49
72612;BME280;60655;52.182;4.474;2023-08-17T06:39:31;102086.06;;;17.54;89.47
72612;BME280;60655;52.182;4.474;2023-08-17T06:41:32;102081.16;;;17.63;88.94
72612;BME280;60655;52.182;4.474;2023-08-17T06:43:33;102080.25;;;17.58;89.60
72612;BME280;60655;52.182;4.474;2023-08-17T06:45:34;102092.13;;;17.62;89.13
72612;BME280;60655;52.182;4.474;2023-08-17T06:47:35;102088.31;;;17.58;88.75
72612;BME280;60655;52.182;4.474;2023-08-17T06:49:36;102084.00;;;17.68;88.54
72612;BME280;60655;52.182;4.474;2023-08-17T06:51:37;102081.31;;;17.68;88.95
72612;BME280;60655;52.182;4.474;2023-08-17T06:53:38;102084.81;;;17.69;88.90
72612;BME280;60655;52.182;4.474;2023-08-17T06:55:39;102085.06;;;17.67;89.05
72612;BME280;60655;52.182;4.474;2023-08-17T06:57:40;102083.75;;;17.58;88.66
72612;BME280;60655;52.182;4.474;2023-08-17T06:59:41;102078.13;;;17.60;88.05
72612;BME280;60655;52.182;4.474;2023-08-17T07:01:42;102079.41;;;17.57;88.69
72612;BME280;60655;52.182;4.474;2023-08-17T07:03:43;102084.47;;;17.65;88.92
72612;BME280;60655;52.182;4.474;2023-08-17T07:05:44;102084.13;;;17.73;88.90
72612;BME280;60655;52.182;4.474;2023-08-17T07:07:45;102080.63;;;17.84;88.71
72612;BME280;60655;52.182;4.474;2023-08-17T07:09:46;102080.03;;;17.94;87.43
72612;BME280;60655;52.182;4.474;2023-08-17T07:11:47;102081.44;;;17.97;87.57
72612;BME280;60655;52.182;4.474;2023-08-17T07:13:48;102081.56;;;18.02;87.27
72612;BME280;60655;52.182;4.474;2023-08-17T07:15:48;102076.06;;;18.08;87.86
72612;BME280;60655;52.182;4.474;2023-08-17T07:17:49;102082.94;;;18.16;86.61
72612;BME280;60655;52.182;4.474;2023-08-17T07:19:50;102079.78;;;18.19;86.33
72612;BME280;60655;52.182;4.474;2023-08-17T07:21:51;102073.22;;;18.27;86.85
72612;BME280;60655;52.182;4.474;2023-08-17T07:23:54;102069.91;;;18.36;86.75
72612;BME280;60655;52.182;4.474;2023-08-17T07:25:56;102075.75;;;18.45;86.29
72612;BME280;60655;52.182;4.474;2023-08-17T07:27:56;102080.16;;;18.51;85.22
72612;BME280;60655;52.182;4.474;2023-08-17T07:29:57;102086.53;;;18.45;84.00
72612;BME280;60655;52.182;4.474;2023-08-17T07:31:58;102084.16;;;18.48;84.02
72612;BME280;60655;52.182;4.474;2023-08-17T07:34:03;102089.63;;;18.53;83.44
72612;BME280;60655;52.182;4.474;2023-08-17T07:36:05;102082.03;;;18.62;83.11
72612;BME280;60655;52.182;4.474;2023-08-17T07:38:05;102086.72;;;18.55;82.89
72612;BME280;60655;52.182;4.474;2023-08-17T07:40:07;102090.13;;;18.50;83.62
72612;BME280;60655;52.182;4.474;2023-08-17T07:42:08;102088.00;;;18.64;83.42
72612;BME280;60655;52.182;4.474;2023-08-17T07:44:09;102089.41;;;18.67;83.46
72612;BME280;60655;52.182;4.474;2023-08-17T07:46:10;102089.59;;;18.77;82.17
72612;BME280;60655;52.182;4.474;2023-08-17T07:48:11;102085.84;;;18.78;81.96
72612;BME280;60655;52.182;4.474;2023-08-17T07:50:12;102083.00;;;18.84;82.13
72612;BME280;60655;52.182;4.474;2023-08-17T07:52:13;102083.78;;;18.97;81.29
72612;BME280;60655;52.182;4.474;2023-08-17T07:54:14;102081.19;;;19.02;81.11
72612;BME280;60655;52.182;4.474;2023-08-17T07:56:14;102075.06;;;19.06;80.06
72612;BME280;60655;52.182;4.474;2023-08-17T07:58:15;102078.47;;;19.30;79.85
72612;BME280;60655;52.182;4.474;2023-08-17T08:00:17;102075.66;;;19.25;78.84
72612;BME280;60655;52.182;4.474;2023-08-17T08:02:18;102084.00;;;19.40;79.30
72612;BME280;60655;52.182;4.474;2023-08-17T08:04:19;102087.84;;;19.44;79.40
72612;BME280;60655;52.182;4.474;2023-08-17T08:06:19;102088.41;;;19.46;77.95
72612;BME280;60655;52.182;4.474;2023-08-17T08:08:21;102089.00;;;19.32;78.29
72612;BME280;60655;52.182;4.474;2023-08-17T08:10:22;102087.75;;;19.39;79.10
72612;BME280;60655;52.182;4.474;2023-08-17T08:12:26;102091.75;;;19.37;79.20
72612;BME280;60655;52.182;4.474;2023-08-17T08:14:27;102073.50;;;19.55;77.98
72612;BME280;60655;52.182;4.474;2023-08-17T08:16:28;102078.16;;;19.60;77.27
72612;BME280;60655;52.182;4.474;2023-08-17T08:18:31;102075.78;;;19.80;77.71
72612;BME280;60655;52.182;4.474;2023-08-17T08:20:32;102066.66;;;20.03;75.65
72612;BME280;60655;52.182;4.474;2023-08-17T08:22:33;102059.50;;;19.92;76.37
72612;BME280;60655;52.182;4.474;2023-08-17T08:24:34;102069.41;;;20.08;75.41
72612;BME280;60655;52.182;4.474;2023-08-17T08:26:35;102066.56;;;20.15;75.14
72612;BME280;60655;52.182;4.474;2023-08-17T08:28:36;102067.47;;;20.04;74.42
72612;BME280;60655;52.182;4.474;2023-08-17T08:30:37;102063.56;;;19.95;75.06
72612;BME280;60655;52.182;4.474;2023-08-17T08:32:41;102071.22;;;20.03;74.70
72612;BME280;60655;52.182;4.474;2023-08-17T08:34:42;102075.63;;;20.09;74.17
72612;BME280;60655;52.182;4.474;2023-08-17T08:36:43;102070.13;;;20.20;74.19
72612;BME280;60655;52.182;4.474;2023-08-17T08:38:44;102055.06;;;20.24;74.38
72612;BME280;60655;52.182;4.474;2023-08-17T08:40:47;102060.13;;;20.38;73.91
72612;BME280;60655;52.182;4.474;2023-08-17T08:42:48;102052.72;;;20.50;73.89
72612;BME280;60655;52.182;4.474;2023-08-17T08:44:49;102053.88;;;20.59;72.83
72612;BME280;60655;52.182;4.474;2023-08-17T08:46:52;102061.53;;;20.67;73.11
72612;BME280;60655;52.182;4.474;2023-08-17T08:48:54;102052.31;;;20.63;72.08
72612;BME280;60655;52.182;4.474;2023-08-17T08:50:55;102045.97;;;20.79;72.22
72612;BME280;60655;52.182;4.474;2023-08-17T08:53:01;102047.28;;;20.99;71.37
72612;BME280;60655;52.182;4.474;2023-08-17T08:55:12;102048.41;;;21.03;72.35
72612;BME280;60655;52.182;4.474;2023-08-17T08:57:15;102045.22;;;20.84;71.36
72612;BME280;60655;52.182;4.474;2023-08-17T08:59:16;102046.81;;;20.80;72.03
72612;BME280;60655;52.182;4.474;2023-08-17T09:01:17;102044.81;;;20.97;72.33
72612;BME280;60655;52.182;4.474;2023-08-17T09:03:19;102049.03;;;21.15;70.44
72612;BME280;60655;52.182;4.474;2023-08-17T09:05:24;102044.31;;;21.27;71.02
72612;BME280;60655;52.182;4.474;2023-08-17T09:07:29;102041.41;;;21.34;69.94
72612;BME280;60655;52.182;4.474;2023-08-17T09:09:30;102036.34;;;21.47;69.84
72612;BME280;60655;52.182;4.474;2023-08-17T09:11:31;102043.91;;;21.45;70.32
72612;BME280;60655;52.182;4.474;2023-08-17T09:13:32;102042.78;;;21.41;68.77
72612;BME280;60655;52.182;4.474;2023-08-17T09:15:33;102041.50;;;21.49;69.09
72612;BME280;60655;52.182;4.474;2023-08-17T09:17:34;102041.59;;;21.27;69.01
72612;BME280;60655;52.182;4.474;2023-08-17T09:19:37;102031.19;;;21.46;68.81
72612;BME280;60655;52.182;4.474;2023-08-17T09:21:38;102027.19;;;21.53;68.37
72612;BME280;60655;52.182;4.474;2023-08-17T09:23:39;102037.94;;;21.43;69.35
72612;BME280;60655;52.182;4.474;2023-08-17T09:25:41;102030.94;;;21.47;68.80
72612;BME280;60655;52.182;4.474;2023-08-17T09:27:43;102036.81;;;21.39;68.63
72612;BME280;60655;52.182;4.474;2023-08-17T09:29:44;102030.16;;;21.52;69.45
72612;BME280;60655;52.182;4.474;2023-08-17T09:31:46;102035.13;;;21.70;68.35
72612;BME280;60655;52.182;4.474;2023-08-17T09:33:53;102040.44;;;21.97;67.66
72612;BME280;60655;52.182;4.474;2023-08-17T09:35:55;102030.66;;;21.86;67.29
72612;BME280;60655;52.182;4.474;2023-08-17T09:37:57;102032.72;;;21.74;66.99
72612;BME280;60655;52.182;4.474;2023-08-17T09:39:58;102025.25;;;21.86;68.08
72612;BME280;60655;52.182;4.474;2023-08-17T09:41:59;102022.50;;;21.81;68.53
72612;BME280;60655;52.182;4.474;2023-08-17T09:44:01;102021.88;;;21.69;69.91
72612;BME280;60655;52.182;4.474;2023-08-17T09:46:02;102009.56;;;21.88;69.27
72612;BME280;60655;52.182;4.474;2023-08-17T09:48:04;102014.53;;;22.06;67.97
72612;BME280;60655;52.182;4.474;2023-08-17T09:50:05;102003.53;;;22.23;67.57
72612;BME280;60655;52.182;4.474;2023-08-17T09:52:06;102001.97;;;22.47;67.45
72612;BME280;60655;52.182;4.474;2023-08-17T09:54:08;102003.63;;;22.69;66.10
72612;BME280;60655;52.182;4.474;2023-08-17T09:56:09;102013.41;;;22.75;66.03
72612;BME280;60655;52.182;4.474;2023-08-17T09:58:14;102009.56;;;22.50;65.21
72612;BME280;60655;52.182;4.474;2023-08-17T10:00:19;102001.38;;;22.35;65.37
72612;BME280;60655;52.182;4.474;2023-08-17T10:02:22;102010.81;;;22.17;65.77
72612;BME280;60655;52.182;4.474;2023-08-17T10:04:24;102018.72;;;21.82;66.50
72612;BME280;60655;52.182;4.474;2023-08-17T10:06:26;102016.06;;;21.97;66.12
72612;BME280;60655;52.182;4.474;2023-08-17T10:08:30;102017.97;;;21.97;66.27
72612;BME280;60655;52.182;4.474;2023-08-17T10:10:35;102012.44;;;22.23;65.69
72612;BME280;60655;52.182;4.474;2023-08-17T10:12:48;102012.25;;;22.45;64.13
72612;BME280;60655;52.182;4.474;2023-08-17T10:15:02;102014.41;;;22.53;64.48
72612;BME280;60655;52.182;4.474;2023-08-17T10:17:07;102023.31;;;22.34;62.98
72612;BME280;60655;52.182;4.474;2023-08-17T10:22:22;102002.72;;;22.22;65.89
72612;BME280;60655;52.182;4.474;2023-08-17T10:24:02;101994.34;;;22.39;64.27
72612;BME280;60655;52.182;4.474;2023-08-17T10:26:04;102001.16;;;22.62;64.86
72612;BME280;60655;52.182;4.474;2023-08-17T10:28:05;101993.88;;;22.73;64.00
72612;BME280;60655;52.182;4.474;2023-08-17T10:30:08;101997.13;;;22.75;63.47
72612;BME280;60655;52.182;4.474;2023-08-17T10:32:11;102003.03;;;22.41;63.87
72612;BME280;60655;52.182;4.474;2023-08-17T10:34:13;101992.75;;;22.53;63.87
72612;BME280;60655;52.182;4.474;2023-08-17T10:36:15;101997.69;;;22.77;63.71
72612;BME280;60655;52.182;4.474;2023-08-17T10:38:16;101997.38;;;22.58;62.55
72612;BME280;60655;52.182;4.474;2023-08-17T10:40:26;102001.13;;;22.42;64.08